createdAt,value
2022-10-02T00:02:44.251Z,56.29
2022-10-02T00:05:54.574Z,56.30
2022-10-02T00:08:36.018Z,56.41
2022-10-02T00:11:18.872Z,56.32
2022-10-02T00:14:03.535Z,56.27
2022-10-02T00:16:42.293Z,56.28
2022-10-02T00:19:12.875Z,56.36
2022-10-02T00:21:40.227Z,56.26
2022-10-02T00:24:15.008Z,56.10
2022-10-02T00:26:56.473Z,56.21
2022-10-02T00:29:38.508Z,56.21
2022-10-02T00:32:14.416Z,56.21
2022-10-02T00:34:47.499Z,56.12
2022-10-02T00:37:22.699Z,56.15
2022-10-02T00:40:09.654Z,56.11
2022-10-02T00:42:58.020Z,56.26
2022-10-02T00:45:48.671Z,56.22
2022-10-02T00:48:38.418Z,56.15
2022-10-02T00:51:19.768Z,56.11
2022-10-02T00:54:01.964Z,56.12
2022-10-02T00:56:59.189Z,56.04
2022-10-02T00:59:50.932Z,56.01
2022-10-02T01:02:27.129Z,56.08
2022-10-02T01:04:57.695Z,56.06
2022-10-02T01:07:25.197Z,56.01
2022-10-02T01:09:53.173Z,56.06
2022-10-02T01:12:20.530Z,55.92
2022-10-02T01:14:47.978Z,55.84
2022-10-02T01:17:21.526Z,55.78
2022-10-02T01:19:49.550Z,55.87
2022-10-02T01:22:44.252Z,56.00
2022-10-02T01:25:11.795Z,55.92
2022-10-02T01:27:39.652Z,55.85
2022-10-02T01:30:14.610Z,55.83
2022-10-02T01:32:50.543Z,55.84
2022-10-02T01:35:20.785Z,55.80
2022-10-02T01:37:51.725Z,55.81
2022-10-02T01:40:31.583Z,55.86
2022-10-02T01:43:20.442Z,55.81
2022-10-02T01:46:12.690Z,55.91
2022-10-02T01:48:48.164Z,55.86
2022-10-02T01:51:36.461Z,55.83
2022-10-02T01:54:35.653Z,55.86
2022-10-02T01:57:25.540Z,55.75
2022-10-02T02:00:14.405Z,55.82
2022-10-02T02:02:56.485Z,55.74
2022-10-02T02:05:48.641Z,55.78
2022-10-02T02:08:37.398Z,55.88
2022-10-02T02:11:22.326Z,55.84
2022-10-02T02:14:12.152Z,55.72
2022-10-02T02:16:47.752Z,55.79
2022-10-02T02:19:57.894Z,55.76
2022-10-02T02:22:30.291Z,55.69
2022-10-02T02:25:04.339Z,55.72
2022-10-02T02:27:39.901Z,55.68
2022-10-02T02:30:13.000Z,55.63
2022-10-02T02:32:59.473Z,55.52
2022-10-02T02:35:48.955Z,55.47
2022-10-02T02:38:27.997Z,55.66
2022-10-02T02:41:00.808Z,55.45
2022-10-02T02:43:30.676Z,55.53
2022-10-02T02:46:03.902Z,55.46
2022-10-02T02:48:41.671Z,55.53
2022-10-02T02:51:18.239Z,55.48
2022-10-02T02:53:56.971Z,55.55
2022-10-02T02:56:27.895Z,55.57
2022-10-02T02:59:10.409Z,55.55
2022-10-02T03:01:41.110Z,55.54
2022-10-02T03:04:12.957Z,55.41
2022-10-02T03:06:46.332Z,55.50
2022-10-02T03:09:20.498Z,55.43
2022-10-02T03:12:09.852Z,55.44
2022-10-02T03:15:03.044Z,55.43
2022-10-02T03:17:46.172Z,55.44
2022-10-02T03:20:32.471Z,55.34
2022-10-02T03:23:53.907Z,55.28
2022-10-02T03:26:37.922Z,55.27
2022-10-02T03:29:12.964Z,55.34
2022-10-02T03:31:42.427Z,55.23
2022-10-02T03:34:11.704Z,55.29
2022-10-02T03:36:40.389Z,55.24
2022-10-02T03:39:24.633Z,55.32
2022-10-02T03:41:53.613Z,55.21
2022-10-02T03:44:24.209Z,55.13
2022-10-02T03:46:51.389Z,55.33
2022-10-02T03:49:21.105Z,55.29
2022-10-02T03:51:50.088Z,55.16
2022-10-02T03:54:21.021Z,55.25
2022-10-02T03:57:01.143Z,55.24
2022-10-02T03:59:51.684Z,55.20
2022-10-02T04:02:49.261Z,55.11
2022-10-02T04:05:28.481Z,55.18
2022-10-02T04:08:00.290Z,55.22
2022-10-02T04:10:51.143Z,55.14
2022-10-02T04:13:32.432Z,55.13
2022-10-02T04:16:08.784Z,55.13
2022-10-02T04:18:52.737Z,55.05
2022-10-02T04:21:40.154Z,55.07
2022-10-02T04:24:31.067Z,55.15
2022-10-02T04:27:07.230Z,55.09
2022-10-02T04:29:39.401Z,55.06
2022-10-02T04:32:16.803Z,55.10
2022-10-02T04:34:45.068Z,55.07
2022-10-02T04:37:27.165Z,54.98
2022-10-02T04:40:53.936Z,55.08
2022-10-02T04:44:06.762Z,55.11
2022-10-02T04:46:56.883Z,55.08
2022-10-02T04:49:45.790Z,55.01
2022-10-02T04:52:29.104Z,54.98
2022-10-02T04:55:15.272Z,54.93
2022-10-02T04:58:07.579Z,54.88
2022-10-02T05:01:13.131Z,54.83
2022-10-02T05:04:18.544Z,54.90
2022-10-02T05:06:55.907Z,54.83
2022-10-02T05:09:38.184Z,54.88
2022-10-02T05:12:18.016Z,54.80
2022-10-02T05:15:16.479Z,54.92
2022-10-02T05:18:23.695Z,54.82
2022-10-02T05:21:29.185Z,54.80
2022-10-02T05:24:33.122Z,54.77
2022-10-02T05:27:50.698Z,54.86
2022-10-02T05:30:20.797Z,54.80
2022-10-02T05:32:56.831Z,54.83
2022-10-02T05:35:44.355Z,54.80
2022-10-02T05:38:39.270Z,54.79
2022-10-02T05:41:37.072Z,54.74
2022-10-02T05:44:15.259Z,54.77
2022-10-02T05:46:54.607Z,54.67
2022-10-02T05:49:29.613Z,54.74
2022-10-02T05:52:03.828Z,54.70
2022-10-02T05:55:04.582Z,54.75
2022-10-02T05:57:49.120Z,54.63
2022-10-02T06:00:28.402Z,54.66
2022-10-02T06:03:10.715Z,54.63
2022-10-02T06:05:44.879Z,54.61
2022-10-02T06:08:21.642Z,54.62
2022-10-02T06:11:03.443Z,54.72
2022-10-02T06:13:44.511Z,54.66
2022-10-02T06:16:59.629Z,54.65
2022-10-02T06:19:43.207Z,54.69
2022-10-02T06:22:21.843Z,54.48
2022-10-02T06:25:02.337Z,54.63
2022-10-02T06:27:44.013Z,54.59
2022-10-02T06:30:15.308Z,54.58
2022-10-02T06:32:53.881Z,54.60
2022-10-02T06:35:39.955Z,54.50
2022-10-02T06:38:13.046Z,54.52
2022-10-02T06:40:46.564Z,54.43
2022-10-02T06:43:33.053Z,54.42
2022-10-02T06:46:28.922Z,54.43
2022-10-02T06:49:26.926Z,54.38
2022-10-02T06:52:25.040Z,54.29
2022-10-02T06:55:14.519Z,54.25
2022-10-02T06:58:13.973Z,54.23
2022-10-02T07:00:52.475Z,54.31
2022-10-02T07:03:42.518Z,54.16
2022-10-02T07:06:39.722Z,54.06
2022-10-02T07:09:50.240Z,53.92
2022-10-02T07:13:01.414Z,53.69
2022-10-02T07:15:41.055Z,53.53
2022-10-02T07:18:22.858Z,53.38
2022-10-02T07:21:03.109Z,53.09
2022-10-02T07:24:02.379Z,52.94
2022-10-02T07:26:57.430Z,52.89
2022-10-02T07:29:35.638Z,52.91
2022-10-02T07:32:18.779Z,52.75
2022-10-02T07:35:11.185Z,52.51
2022-10-02T07:38:02.103Z,52.54
2022-10-02T07:40:47.570Z,52.27
2022-10-02T07:43:23.846Z,52.17
2022-10-02T07:46:23.151Z,52.01
2022-10-02T07:49:05.864Z,51.74
2022-10-02T07:52:11.653Z,51.70
2022-10-02T07:54:52.726Z,51.58
2022-10-02T07:57:49.749Z,51.45
2022-10-02T08:00:19.034Z,51.43
2022-10-02T08:02:55.128Z,51.27
2022-10-02T08:05:31.262Z,51.28
2022-10-02T08:08:29.227Z,51.02
2022-10-02T08:11:17.691Z,51.18
2022-10-02T08:14:08.591Z,51.02
2022-10-02T08:16:43.694Z,50.75
2022-10-02T08:19:22.951Z,50.86
2022-10-02T08:22:09.117Z,50.42
2022-10-02T08:24:48.248Z,50.35
2022-10-02T08:27:49.832Z,50.29
2022-10-02T08:30:21.333Z,50.26
2022-10-02T08:32:49.879Z,50.29
2022-10-02T08:35:21.332Z,50.18
2022-10-02T08:38:13.151Z,50.19
2022-10-02T08:40:53.111Z,49.99
2022-10-02T08:44:03.281Z,49.85
2022-10-02T08:47:02.861Z,49.82
2022-10-02T08:49:48.260Z,49.89
2022-10-02T08:52:40.397Z,49.77
2022-10-02T08:55:35.910Z,49.86
2022-10-02T08:58:22.208Z,49.54
2022-10-02T09:01:01.954Z,49.71
2022-10-02T09:04:04.739Z,49.57
2022-10-02T09:07:04.151Z,49.47
2022-10-02T09:10:03.420Z,49.49
2022-10-02T09:13:01.680Z,49.34
2022-10-02T09:15:42.390Z,49.44
2022-10-02T09:18:28.719Z,49.37
2022-10-02T09:21:15.729Z,49.29
2022-10-02T09:24:02.901Z,49.42
2022-10-02T09:26:51.689Z,49.35
2022-10-02T09:29:38.038Z,49.25
2022-10-02T09:32:43.639Z,49.27
2022-10-02T09:35:33.841Z,49.33
2022-10-02T09:38:36.865Z,49.32
2022-10-02T09:41:16.665Z,49.40
2022-10-02T09:44:36.897Z,49.44
2022-10-02T09:47:23.264Z,49.60
2022-10-02T09:50:11.103Z,49.51
2022-10-02T09:53:06.137Z,49.53
2022-10-02T09:55:54.043Z,49.67
2022-10-02T09:58:23.013Z,49.90
2022-10-02T10:01:02.673Z,49.87
2022-10-02T10:03:44.881Z,49.95
2022-10-02T10:06:13.026Z,49.98
2022-10-02T10:09:04.369Z,50.02
2022-10-02T10:12:11.678Z,50.11
2022-10-02T10:15:09.735Z,50.16
2022-10-02T10:18:14.952Z,50.33
2022-10-02T10:21:05.372Z,50.36
2022-10-02T10:23:52.103Z,50.49
2022-10-02T10:26:38.790Z,50.59
2022-10-02T10:29:40.144Z,50.52
2022-10-02T10:32:35.691Z,50.68
2022-10-02T10:35:26.454Z,50.81
2022-10-02T10:38:36.041Z,50.83
2022-10-02T10:41:11.222Z,50.87
2022-10-02T10:44:18.063Z,50.95
2022-10-02T10:46:47.521Z,51.02
2022-10-02T10:50:02.605Z,50.96
2022-10-02T10:53:04.477Z,51.01
2022-10-02T10:56:00.782Z,50.83
2022-10-02T10:58:53.059Z,50.79
2022-10-02T11:01:24.427Z,50.54
2022-10-02T11:04:01.572Z,50.35
2022-10-02T11:06:51.773Z,50.43
2022-10-02T11:09:28.752Z,50.27
2022-10-02T11:12:15.110Z,50.26
2022-10-02T11:14:44.345Z,50.03
2022-10-02T11:17:20.231Z,50.10
2022-10-02T11:20:07.035Z,50.07
2022-10-02T11:22:55.348Z,49.99
2022-10-02T11:25:45.698Z,50.08
2022-10-02T11:28:26.849Z,49.95
2022-10-02T11:31:03.676Z,49.87
2022-10-02T11:34:24.973Z,50.01
2022-10-02T11:37:16.539Z,49.93
2022-10-02T11:39:54.352Z,50.04
2022-10-02T11:42:45.992Z,50.20
2022-10-02T11:45:44.462Z,50.24
2022-10-02T11:48:51.452Z,50.41
2022-10-02T11:51:38.186Z,50.38
2022-10-02T11:54:37.385Z,50.60
2022-10-02T11:57:46.100Z,50.65
2022-10-02T12:00:45.638Z,50.71
2022-10-02T12:03:34.230Z,50.79
2022-10-02T12:06:21.656Z,50.89
2022-10-02T12:09:04.327Z,50.88
2022-10-02T12:11:59.173Z,51.18
2022-10-02T12:14:43.430Z,51.26
2022-10-02T12:18:00.857Z,51.27
2022-10-02T12:20:56.054Z,51.35
2022-10-02T12:23:56.072Z,51.33
2022-10-02T12:26:51.738Z,51.36
2022-10-02T12:29:46.490Z,51.47
2022-10-02T12:32:51.439Z,51.53
2022-10-02T12:35:52.266Z,51.52
2022-10-02T12:38:54.081Z,51.68
2022-10-02T12:41:21.507Z,51.66
2022-10-02T12:43:55.638Z,51.76
2022-10-02T12:46:52.744Z,51.85
2022-10-02T12:50:04.762Z,51.81
2022-10-02T12:52:36.211Z,51.87
2022-10-02T12:55:41.302Z,51.92
2022-10-02T12:58:19.345Z,51.88
2022-10-02T13:01:34.922Z,51.95
2022-10-02T13:04:44.295Z,52.00
2022-10-02T13:07:44.498Z,52.07
2022-10-02T13:10:27.369Z,52.09
2022-10-02T13:13:30.700Z,51.98
2022-10-02T13:16:10.136Z,52.03
2022-10-02T13:19:04.547Z,52.07
2022-10-02T13:21:47.692Z,52.31
2022-10-02T13:24:24.554Z,52.22
2022-10-02T13:26:59.465Z,52.22
2022-10-02T13:29:43.527Z,52.32
2022-10-02T13:32:17.150Z,52.29
2022-10-02T13:34:51.858Z,52.33
2022-10-02T13:37:39.277Z,52.35
2022-10-02T13:40:32.502Z,52.34
2022-10-02T13:43:34.931Z,52.36
2022-10-02T13:46:23.293Z,52.42
2022-10-02T13:49:48.282Z,52.47
2022-10-02T13:52:20.434Z,52.44
2022-10-02T13:55:02.353Z,52.55
2022-10-02T13:58:14.031Z,52.50
2022-10-02T14:00:59.624Z,52.60
2022-10-02T14:03:54.881Z,52.59
2022-10-02T14:06:37.899Z,52.70
2022-10-02T14:09:36.951Z,52.66
2022-10-02T14:12:07.896Z,52.68
2022-10-02T14:14:44.279Z,52.74
2022-10-02T14:17:31.566Z,52.93
2022-10-02T14:20:15.341Z,52.90
2022-10-02T14:22:53.317Z,52.79
2022-10-02T14:25:44.645Z,52.80
2022-10-02T14:28:50.765Z,52.90
2022-10-02T14:31:52.349Z,52.95
2022-10-02T14:35:02.305Z,53.01
2022-10-02T14:37:55.983Z,53.05
2022-10-02T14:40:41.252Z,53.13
2022-10-02T14:43:34.004Z,53.10
2022-10-02T14:46:20.722Z,53.17
2022-10-02T14:49:31.898Z,53.22
2022-10-02T14:52:27.611Z,53.26
2022-10-02T14:54:58.753Z,53.34
2022-10-02T14:57:49.353Z,53.36
2022-10-02T15:00:21.669Z,53.40
2022-10-02T15:03:02.299Z,53.52
2022-10-02T15:05:54.237Z,53.48
2022-10-02T15:08:31.125Z,53.58
2022-10-02T15:10:59.894Z,53.57
2022-10-02T15:14:00.059Z,53.66
2022-10-02T15:17:00.938Z,53.53
2022-10-02T15:19:49.726Z,53.58
2022-10-02T15:22:32.119Z,53.55
2022-10-02T15:25:17.761Z,53.70
2022-10-02T15:27:50.943Z,53.61
2022-10-02T15:30:23.981Z,53.70
2022-10-02T15:33:12.841Z,53.67
2022-10-02T15:35:49.328Z,53.76
2022-10-02T15:38:42.525Z,53.77
2022-10-02T15:41:12.705Z,53.76
2022-10-02T15:43:42.809Z,53.67
2022-10-02T15:46:34.694Z,53.79
2022-10-02T15:49:24.824Z,53.83
2022-10-02T15:52:10.478Z,53.78
2022-10-02T15:55:16.072Z,53.73
2022-10-02T15:57:49.729Z,53.87
2022-10-02T16:00:18.759Z,53.94
2022-10-02T16:03:22.503Z,53.82
2022-10-02T16:06:03.966Z,53.87
2022-10-02T16:09:18.734Z,53.85
2022-10-02T16:12:04.814Z,53.93
2022-10-02T16:15:13.059Z,53.89
2022-10-02T16:17:48.779Z,53.87
2022-10-02T16:20:15.839Z,53.85
2022-10-02T16:22:58.851Z,53.96
2022-10-02T16:25:44.435Z,53.89
2022-10-02T16:28:36.979Z,53.98
2022-10-02T16:31:30.619Z,53.91
2022-10-02T16:37:22.108Z,54.01
2022-10-02T16:40:05.053Z,53.91
2022-10-02T16:42:43.241Z,53.92
2022-10-02T16:45:35.749Z,53.92
2022-10-02T16:48:03.019Z,54.02
2022-10-02T16:51:13.190Z,53.95
2022-10-02T16:54:09.738Z,53.94
2022-10-02T16:57:11.389Z,54.08
2022-10-02T16:59:57.617Z,53.93
2022-10-02T17:02:36.962Z,54.00
2022-10-02T17:05:43.451Z,54.11
2022-10-02T17:08:54.982Z,54.07
2022-10-02T17:11:51.829Z,54.20
2022-10-02T17:14:55.342Z,54.23
2022-10-02T17:18:06.263Z,54.18
2022-10-02T17:20:55.448Z,54.26
2022-10-02T17:24:10.662Z,54.19
2022-10-02T17:27:02.406Z,54.30
2022-10-02T17:30:15.015Z,54.25
2022-10-02T17:32:52.099Z,54.39
2022-10-02T17:35:48.048Z,54.34
2022-10-02T17:38:48.006Z,54.36
2022-10-02T17:42:21.116Z,54.46
2022-10-02T17:45:28.066Z,54.60
2022-10-02T17:52:25.503Z,54.53
2022-10-02T17:59:02.106Z,54.72
2022-10-02T18:02:16.322Z,54.72
2022-10-02T18:06:02.237Z,54.79
2022-10-02T18:12:39.153Z,54.85
2022-10-02T18:15:31.078Z,54.89
2022-10-02T18:18:29.712Z,54.83
2022-10-02T18:21:32.971Z,54.77
2022-10-02T18:24:17.316Z,54.89
2022-10-02T18:27:38.099Z,54.88
2022-10-02T18:30:31.652Z,54.80
2022-10-02T18:33:25.651Z,54.87
2022-10-02T18:36:11.507Z,54.85
2022-10-02T18:39:12.088Z,54.74
2022-10-02T18:41:59.300Z,54.51
2022-10-02T18:49:42.828Z,54.46
2022-10-02T18:53:14.186Z,54.12
2022-10-02T18:56:44.905Z,53.96
2022-10-02T19:00:06.725Z,53.81
2022-10-02T19:08:40.609Z,53.52
2022-10-02T19:15:42.592Z,53.27
2022-10-02T19:18:45.476Z,53.08
2022-10-02T19:21:19.453Z,53.11
2022-10-02T19:24:21.345Z,52.91
2022-10-02T19:27:01.958Z,52.84
2022-10-02T19:29:42.574Z,52.70
2022-10-02T19:32:27.579Z,52.72
2022-10-02T19:35:36.608Z,52.47
2022-10-02T19:38:35.657Z,52.44
2022-10-02T19:41:15.558Z,52.46
2022-10-02T19:44:08.155Z,52.15
2022-10-02T19:47:07.403Z,52.03
2022-10-02T19:49:50.317Z,51.75
2022-10-02T19:52:55.340Z,51.62
2022-10-02T19:55:27.757Z,51.56
2022-10-02T19:58:07.197Z,51.52
2022-10-02T20:00:43.410Z,51.47
2022-10-02T20:03:24.652Z,51.62
2022-10-02T20:06:06.085Z,51.78
2022-10-02T20:08:45.474Z,51.89
2022-10-02T20:11:23.984Z,52.00
2022-10-02T20:14:04.197Z,51.98
2022-10-02T20:16:52.244Z,52.05
2022-10-02T20:19:30.078Z,52.09
2022-10-02T20:22:08.826Z,52.26
2022-10-02T20:24:45.170Z,52.14
2022-10-02T20:27:35.043Z,52.39
2022-10-02T20:30:19.543Z,52.40
2022-10-02T20:32:57.985Z,52.43
2022-10-02T20:35:36.370Z,52.46
2022-10-02T20:38:11.364Z,52.66
2022-10-02T20:40:44.492Z,52.70
2022-10-02T20:43:19.756Z,52.74
2022-10-02T20:46:02.641Z,52.76
2022-10-02T20:49:07.479Z,52.82
2022-10-02T20:51:41.942Z,52.79
2022-10-02T20:54:29.017Z,52.84
2022-10-02T20:57:14.941Z,52.80
2022-10-02T21:00:19.844Z,52.75
2022-10-02T21:03:14.815Z,52.77
2022-10-02T21:05:48.896Z,52.92
2022-10-02T21:08:37.510Z,52.79
2022-10-02T21:11:13.731Z,52.77
2022-10-02T21:14:17.074Z,53.06
2022-10-02T21:16:43.965Z,53.18
2022-10-02T21:19:32.882Z,53.06
2022-10-02T21:22:05.973Z,53.28
2022-10-02T21:24:41.768Z,53.39
2022-10-02T21:27:37.039Z,53.46
2022-10-02T21:30:11.665Z,53.51
2022-10-02T21:32:59.808Z,53.59
2022-10-02T21:35:42.430Z,53.69
2022-10-02T21:38:12.238Z,53.68
2022-10-02T21:41:13.757Z,53.83
2022-10-02T21:44:18.646Z,53.81
2022-10-02T21:47:10.672Z,53.77
2022-10-02T21:50:01.583Z,53.91
2022-10-02T21:52:37.278Z,53.90
2022-10-02T21:55:04.383Z,53.83
2022-10-02T21:57:59.898Z,53.90
2022-10-02T22:00:28.482Z,54.06
2022-10-02T22:03:38.140Z,54.02
2022-10-02T22:06:17.588Z,54.07
2022-10-02T22:08:50.821Z,54.05
2022-10-02T22:11:46.248Z,54.05
2022-10-02T22:14:36.950Z,54.18
2022-10-02T22:17:24.411Z,54.19
2022-10-02T22:20:12.763Z,54.33
2022-10-02T22:22:48.604Z,54.44
2022-10-02T22:25:39.588Z,54.50
2022-10-02T22:28:22.878Z,54.56
2022-10-02T22:30:55.773Z,54.65
2022-10-02T22:33:22.823Z,54.56
2022-10-02T22:36:00.394Z,54.57
2022-10-02T22:38:35.202Z,54.64
2022-10-02T22:41:08.940Z,54.64
2022-10-02T22:43:45.741Z,54.55
2022-10-02T22:46:21.880Z,54.50
2022-10-02T22:49:04.814Z,54.62
2022-10-02T22:51:59.256Z,54.53
2022-10-02T22:54:49.459Z,54.47
2022-10-02T22:57:39.339Z,54.42
2022-10-02T23:00:21.248Z,54.46
2022-10-02T23:02:48.280Z,54.47
2022-10-02T23:05:27.627Z,54.48
2022-10-02T23:08:04.917Z,54.41
2022-10-02T23:10:42.142Z,54.46
2022-10-02T23:13:09.058Z,54.60
2022-10-02T23:16:21.018Z,54.60
2022-10-02T23:18:55.589Z,54.58
2022-10-02T23:21:45.837Z,54.58
2022-10-02T23:24:13.442Z,54.65
2022-10-02T23:26:55.853Z,54.72
2022-10-02T23:29:31.101Z,54.58
2022-10-02T23:32:04.502Z,54.70
2022-10-02T23:34:56.429Z,54.66
2022-10-02T23:37:32.622Z,54.66
2022-10-02T23:41:15.131Z,54.83
2022-10-02T23:43:56.166Z,54.85
2022-10-02T23:46:30.159Z,54.85
2022-10-02T23:48:58.169Z,54.97
2022-10-02T23:51:45.415Z,54.91
2022-10-02T23:54:29.957Z,54.97
2022-10-02T23:57:09.083Z,55.02
2022-10-02T23:59:42.179Z,55.03
